Repto Duran, Puerto Rico
Current Conditions -  °F | °C
As of 8:50 AM on Thursday 23 Oct 2014 (Local Time) from TJMZ Reporting Station
Few Clouds Few Clouds  
Wind Chill: 81°   Ceiling: Unl
Heat Index: 84°   Visibility: 10mi
Dew Point: 70°   Wind: 5mph
Humidity: 70%   Direction: 90°E
Pressure: 29.96"   Gusts: NA
Location:  18.4951°N, 67.0273°W
Report Text: TJMZ 231250Z 09004KT 10SM FEW030 27/21 A2996
Loading
Personal Weather Stations






























Interactive Weather Map
Tropical Storm Tracking
New forecast layout! Learn more

10-Day Weather Forecast

Advertisements
Track Severe Weather on mobile